sensor_id;sensor_type;location;lat;lon;timestamp;temperature;humidity
5055;DHT22;13829;48.990;8.346;2022-10-16T00:00:43;16.10;99.90
5055;DHT22;13829;48.990;8.346;2022-10-16T00:03:10;16.00;99.90
5055;DHT22;13829;48.990;8.346;2022-10-16T00:05:39;16.00;99.90
5055;DHT22;13829;48.990;8.346;2022-10-16T00:08:10;16.00;99.90
5055;DHT22;13829;48.990;8.346;2022-10-16T00:10:38;16.00;99.90
5055;DHT22;13829;48.990;8.346;2022-10-16T00:13:06;16.10;99.90
5055;DHT22;13829;48.990;8.346;2022-10-16T00:15:34;16.10;99.90
5055;DHT22;13829;48.990;8.346;2022-10-16T00:18:03;16.10;99.90
5055;DHT22;13829;48.990;8.346;2022-10-16T00:20:33;16.10;99.90
5055;DHT22;13829;48.990;8.346;2022-10-16T00:23:02;16.10;99.90
5055;DHT22;13829;48.990;8.346;2022-10-16T00:25:31;16.10;99.90
5055;DHT22;13829;48.990;8.346;2022-10-16T00:27:59;16.10;99.90
5055;DHT22;13829;48.990;8.346;2022-10-16T00:30:26;16.10;99.90
5055;DHT22;13829;48.990;8.346;2022-10-16T00:32:54;16.10;99.90
5055;DHT22;13829;48.990;8.346;2022-10-16T00:35:21;16.10;99.90
5055;DHT22;13829;48.990;8.346;2022-10-16T00:37:48;16.00;99.90
5055;DHT22;13829;48.990;8.346;2022-10-16T00:40:15;16.00;99.90
5055;DHT22;13829;48.990;8.346;2022-10-16T00:42:44;16.00;99.90
5055;DHT22;13829;48.990;8.346;2022-10-16T00:45:11;16.00;99.90
5055;DHT22;13829;48.990;8.346;2022-10-16T00:47:40;16.00;99.90
5055;DHT22;13829;48.990;8.346;2022-10-16T00:50:17;16.00;99.90
5055;DHT22;13829;48.990;8.346;2022-10-16T00:52:50;16.00;99.90
5055;DHT22;13829;48.990;8.346;2022-10-16T00:55:19;16.10;99.90
5055;DHT22;13829;48.990;8.346;2022-10-16T00:57:48;16.10;99.90
5055;DHT22;13829;48.990;8.346;2022-10-16T01:00:19;16.10;99.90
5055;DHT22;13829;48.990;8.346;2022-10-16T01:02:52;16.10;99.90
5055;DHT22;13829;48.990;8.346;2022-10-16T01:05:21;16.10;99.90
5055;DHT22;13829;48.990;8.346;2022-10-16T01:07:53;16.10;99.90
5055;DHT22;13829;48.990;8.346;2022-10-16T01:10:28;16.10;99.90
5055;DHT22;13829;48.990;8.346;2022-10-16T01:13:04;16.10;99.90
5055;DHT22;13829;48.990;8.346;2022-10-16T01:15:36;16.10;99.90
5055;DHT22;13829;48.990;8.346;2022-10-16T01:18:10;16.10;99.90
5055;DHT22;13829;48.990;8.346;2022-10-16T01:20:46;16.10;99.90
5055;DHT22;13829;48.990;8.346;2022-10-16T01:23:27;16.10;99.90
5055;DHT22;13829;48.990;8.346;2022-10-16T01:26:13;16.10;99.90
5055;DHT22;13829;48.990;8.346;2022-10-16T01:28:51;16.10;99.90
5055;DHT22;13829;48.990;8.346;2022-10-16T01:31:24;16.10;99.90
5055;DHT22;13829;48.990;8.346;2022-10-16T01:33:57;16.10;99.90
5055;DHT22;13829;48.990;8.346;2022-10-16T01:36:33;16.10;99.90
5055;DHT22;13829;48.990;8.346;2022-10-16T01:39:03;16.10;99.90
5055;DHT22;13829;48.990;8.346;2022-10-16T01:41:36;16.10;99.90
5055;DHT22;13829;48.990;8.346;2022-10-16T01:44:09;16.20;99.90
5055;DHT22;13829;48.990;8.346;2022-10-16T01:46:42;16.10;99.90
5055;DHT22;13829;48.990;8.346;2022-10-16T01:49:12;16.10;99.90
5055;DHT22;13829;48.990;8.346;2022-10-16T01:51:40;16.10;99.90
5055;DHT22;13829;48.990;8.346;2022-10-16T01:54:12;16.10;99.90
5055;DHT22;13829;48.990;8.346;2022-10-16T01:56:42;16.10;99.90
5055;DHT22;13829;48.990;8.346;2022-10-16T01:59:14;16.00;99.90
5055;DHT22;13829;48.990;8.346;2022-10-16T02:01:47;16.00;99.90
5055;DHT22;13829;48.990;8.346;2022-10-16T02:04:21;15.90;99.90
5055;DHT22;13829;48.990;8.346;2022-10-16T02:06:53;15.90;99.90
5055;DHT22;13829;48.990;8.346;2022-10-16T02:09:21;15.90;99.90
5055;DHT22;13829;48.990;8.346;2022-10-16T02:11:49;15.90;99.90
5055;DHT22;13829;48.990;8.346;2022-10-16T02:14:21;15.80;99.90
5055;DHT22;13829;48.990;8.346;2022-10-16T02:16:50;15.80;99.90
5055;DHT22;13829;48.990;8.346;2022-10-16T02:19:19;15.80;99.90
5055;DHT22;13829;48.990;8.346;2022-10-16T02:21:51;15.80;99.90
5055;DHT22;13829;48.990;8.346;2022-10-16T02:24:28;15.80;99.90
5055;DHT22;13829;48.990;8.346;2022-10-16T02:27:06;15.80;99.90
5055;DHT22;13829;48.990;8.346;2022-10-16T02:29:40;15.70;99.90
5055;DHT22;13829;48.990;8.346;2022-10-16T02:32:17;15.80;99.90
5055;DHT22;13829;48.990;8.346;2022-10-16T02:34:48;15.70;99.90
5055;DHT22;13829;48.990;8.346;2022-10-16T02:37:17;15.70;99.90
5055;DHT22;13829;48.990;8.346;2022-10-16T02:39:45;15.70;99.90
5055;DHT22;13829;48.990;8.346;2022-10-16T02:42:12;15.60;99.90
5055;DHT22;13829;48.990;8.346;2022-10-16T02:44:41;15.60;99.90
5055;DHT22;13829;48.990;8.346;2022-10-16T02:47:08;15.60;99.90
5055;DHT22;13829;48.990;8.346;2022-10-16T02:49:35;15.60;99.90
5055;DHT22;13829;48.990;8.346;2022-10-16T02:52:02;15.60;99.90
5055;DHT22;13829;48.990;8.346;2022-10-16T02:54:29;15.50;99.90
5055;DHT22;13829;48.990;8.346;2022-10-16T02:56:56;15.50;99.90
5055;DHT22;13829;48.990;8.346;2022-10-16T02:59:23;15.50;99.90
5055;DHT22;13829;48.990;8.346;2022-10-16T03:01:51;15.50;99.90
5055;DHT22;13829;48.990;8.346;2022-10-16T03:04:18;15.50;99.90
5055;DHT22;13829;48.990;8.346;2022-10-16T03:06:45;15.50;99.90
5055;DHT22;13829;48.990;8.346;2022-10-16T03:09:12;15.50;99.90
5055;DHT22;13829;48.990;8.346;2022-10-16T03:11:39;15.50;99.90
5055;DHT22;13829;48.990;8.346;2022-10-16T03:14:06;15.50;99.90
5055;DHT22;13829;48.990;8.346;2022-10-16T03:16:33;15.50;99.90
5055;DHT22;13829;48.990;8.346;2022-10-16T03:19:01;15.50;99.90
5055;DHT22;13829;48.990;8.346;2022-10-16T03:21:28;15.50;99.90
5055;DHT22;13829;48.990;8.346;2022-10-16T03:23:55;15.50;99.90
5055;DHT22;13829;48.990;8.346;2022-10-16T03:26:22;15.50;99.90
5055;DHT22;13829;48.990;8.346;2022-10-16T03:28:49;15.50;99.90
5055;DHT22;13829;48.990;8.346;2022-10-16T03:31:16;15.40;99.90
5055;DHT22;13829;48.990;8.346;2022-10-16T03:33:42;15.40;99.90
5055;DHT22;13829;48.990;8.346;2022-10-16T03:36:11;15.40;99.90
5055;DHT22;13829;48.990;8.346;2022-10-16T03:38:38;15.40;99.90
5055;DHT22;13829;48.990;8.346;2022-10-16T03:41:05;15.40;99.90
5055;DHT22;13829;48.990;8.346;2022-10-16T03:43:33;15.50;99.90
5055;DHT22;13829;48.990;8.346;2022-10-16T03:46:00;15.40;99.90
5055;DHT22;13829;48.990;8.346;2022-10-16T03:48:27;15.50;99.90
5055;DHT22;13829;48.990;8.346;2022-10-16T03:50:54;15.40;99.90
5055;DHT22;13829;48.990;8.346;2022-10-16T03:53:22;15.40;99.90
5055;DHT22;13829;48.990;8.346;2022-10-16T03:55:49;15.40;99.90
5055;DHT22;13829;48.990;8.346;2022-10-16T03:58:16;15.50;99.90
5055;DHT22;13829;48.990;8.346;2022-10-16T04:00:45;15.50;99.90
5055;DHT22;13829;48.990;8.346;2022-10-16T04:03:13;15.40;99.90
5055;DHT22;13829;48.990;8.346;2022-10-16T04:05:40;15.40;99.90
5055;DHT22;13829;48.990;8.346;2022-10-16T04:10:42;15.50;99.90
5055;DHT22;13829;48.990;8.346;2022-10-16T04:13:09;15.50;99.90
5055;DHT22;13829;48.990;8.346;2022-10-16T04:15:36;15.50;99.90
5055;DHT22;13829;48.990;8.346;2022-10-16T04:18:03;15.50;99.90
5055;DHT22;13829;48.990;8.346;2022-10-16T04:20:31;15.50;99.90
5055;DHT22;13829;48.990;8.346;2022-10-16T04:22:58;15.50;99.90
5055;DHT22;13829;48.990;8.346;2022-10-16T04:25:25;15.60;99.90
5055;DHT22;13829;48.990;8.346;2022-10-16T04:27:54;15.60;99.90
5055;DHT22;13829;48.990;8.346;2022-10-16T04:30:22;15.60;99.90
5055;DHT22;13829;48.990;8.346;2022-10-16T04:32:49;15.60;99.90
5055;DHT22;13829;48.990;8.346;2022-10-16T04:35:16;15.60;99.90
5055;DHT22;13829;48.990;8.346;2022-10-16T04:37:43;15.70;99.90
5055;DHT22;13829;48.990;8.346;2022-10-16T04:40:11;15.70;99.90
5055;DHT22;13829;48.990;8.346;2022-10-16T04:42:38;15.60;99.90
5055;DHT22;13829;48.990;8.346;2022-10-16T04:45:08;15.70;99.90
5055;DHT22;13829;48.990;8.346;2022-10-16T04:47:35;15.70;99.90
5055;DHT22;13829;48.990;8.346;2022-10-16T04:50:02;15.70;99.90
5055;DHT22;13829;48.990;8.346;2022-10-16T04:52:29;15.60;99.90
5055;DHT22;13829;48.990;8.346;2022-10-16T04:54:57;15.70;99.90
5055;DHT22;13829;48.990;8.346;2022-10-16T04:57:27;15.70;99.90
5055;DHT22;13829;48.990;8.346;2022-10-16T04:59:54;15.60;99.90
5055;DHT22;13829;48.990;8.346;2022-10-16T05:02:23;15.60;99.90
5055;DHT22;13829;48.990;8.346;2022-10-16T05:04:50;15.60;99.90
5055;DHT22;13829;48.990;8.346;2022-10-16T05:07:17;15.60;99.90
5055;DHT22;13829;48.990;8.346;2022-10-16T05:09:44;15.60;99.90
5055;DHT22;13829;48.990;8.346;2022-10-16T05:12:11;15.60;99.90
5055;DHT22;13829;48.990;8.346;2022-10-16T05:14:38;15.60;99.90
5055;DHT22;13829;48.990;8.346;2022-10-16T05:17:05;15.60;99.90
5055;DHT22;13829;48.990;8.346;2022-10-16T05:19:34;15.60;99.90
5055;DHT22;13829;48.990;8.346;2022-10-16T05:22:01;15.50;99.90
5055;DHT22;13829;48.990;8.346;2022-10-16T05:24:28;15.50;99.90
5055;DHT22;13829;48.990;8.346;2022-10-16T05:26:55;15.50;99.90
5055;DHT22;13829;48.990;8.346;2022-10-16T05:29:22;15.50;99.90
5055;DHT22;13829;48.990;8.346;2022-10-16T05:31:50;15.50;99.90
5055;DHT22;13829;48.990;8.346;2022-10-16T05:34:18;15.50;99.90
5055;DHT22;13829;48.990;8.346;2022-10-16T05:36:46;15.50;99.90
5055;DHT22;13829;48.990;8.346;2022-10-16T05:39:15;15.50;99.90
5055;DHT22;13829;48.990;8.346;2022-10-16T05:41:42;15.40;99.90
5055;DHT22;13829;48.990;8.346;2022-10-16T05:44:10;15.40;99.90
5055;DHT22;13829;48.990;8.346;2022-10-16T05:46:37;15.50;99.90
5055;DHT22;13829;48.990;8.346;2022-10-16T05:49:04;15.50;99.90
5055;DHT22;13829;48.990;8.346;2022-10-16T05:51:31;15.50;99.90
5055;DHT22;13829;48.990;8.346;2022-10-16T05:53:59;15.50;99.90
5055;DHT22;13829;48.990;8.346;2022-10-16T05:56:26;15.50;99.90
5055;DHT22;13829;48.990;8.346;2022-10-16T05:58:53;15.50;99.90
5055;DHT22;13829;48.990;8.346;2022-10-16T06:01:20;15.60;99.90
5055;DHT22;13829;48.990;8.346;2022-10-16T06:03:49;15.60;99.90
5055;DHT22;13829;48.990;8.346;2022-10-16T06:06:18;15.60;99.90
5055;DHT22;13829;48.990;8.346;2022-10-16T06:08:47;15.70;99.90
5055;DHT22;13829;48.990;8.346;2022-10-16T06:11:18;15.70;99.90
5055;DHT22;13829;48.990;8.346;2022-10-16T06:13:50;15.60;99.90
5055;DHT22;13829;48.990;8.346;2022-10-16T06:16:17;15.70;99.90
5055;DHT22;13829;48.990;8.346;2022-10-16T06:18:46;15.70;99.90
5055;DHT22;13829;48.990;8.346;2022-10-16T06:21:16;15.80;99.90
5055;DHT22;13829;48.990;8.346;2022-10-16T06:23:44;15.80;99.90
5055;DHT22;13829;48.990;8.346;2022-10-16T06:26:14;15.90;99.90
5055;DHT22;13829;48.990;8.346;2022-10-16T06:28:45;15.90;99.90
5055;DHT22;13829;48.990;8.346;2022-10-16T06:31:12;15.90;99.90
5055;DHT22;13829;48.990;8.346;2022-10-16T06:33:40;16.00;99.90
5055;DHT22;13829;48.990;8.346;2022-10-16T06:36:09;16.10;99.90
5055;DHT22;13829;48.990;8.346;2022-10-16T06:38:38;16.20;99.90
5055;DHT22;13829;48.990;8.346;2022-10-16T06:41:06;16.20;99.90
5055;DHT22;13829;48.990;8.346;2022-10-16T06:43:35;16.30;99.90
5055;DHT22;13829;48.990;8.346;2022-10-16T06:46:03;16.40;99.90
5055;DHT22;13829;48.990;8.346;2022-10-16T06:48:33;16.40;99.90
5055;DHT22;13829;48.990;8.346;2022-10-16T06:51:01;16.40;99.90
5055;DHT22;13829;48.990;8.346;2022-10-16T06:53:33;16.50;99.90
5055;DHT22;13829;48.990;8.346;2022-10-16T06:56:07;16.50;99.90
5055;DHT22;13829;48.990;8.346;2022-10-16T06:58:36;16.50;99.90
5055;DHT22;13829;48.990;8.346;2022-10-16T07:01:05;16.50;99.90
5055;DHT22;13829;48.990;8.346;2022-10-16T07:03:32;16.50;99.90
5055;DHT22;13829;48.990;8.346;2022-10-16T07:06:02;16.60;99.90
5055;DHT22;13829;48.990;8.346;2022-10-16T07:08:31;16.70;99.90
5055;DHT22;13829;48.990;8.346;2022-10-16T07:11:00;16.70;99.90
5055;DHT22;13829;48.990;8.346;2022-10-16T07:13:27;16.80;99.90
5055;DHT22;13829;48.990;8.346;2022-10-16T07:15:56;16.90;99.90
5055;DHT22;13829;48.990;8.346;2022-10-16T07:18:23;17.00;99.90
5055;DHT22;13829;48.990;8.346;2022-10-16T07:20:52;17.10;99.90
5055;DHT22;13829;48.990;8.346;2022-10-16T07:23:19;17.10;99.90
5055;DHT22;13829;48.990;8.346;2022-10-16T07:25:53;17.30;99.90
5055;DHT22;13829;48.990;8.346;2022-10-16T07:28:21;17.60;99.90
5055;DHT22;13829;48.990;8.346;2022-10-16T07:30:48;17.70;99.90
5055;DHT22;13829;48.990;8.346;2022-10-16T07:33:16;17.80;99.90
5055;DHT22;13829;48.990;8.346;2022-10-16T07:35:50;17.80;99.90
5055;DHT22;13829;48.990;8.346;2022-10-16T07:38:20;17.70;99.90
5055;DHT22;13829;48.990;8.346;2022-10-16T07:40:48;17.70;99.90
5055;DHT22;13829;48.990;8.346;2022-10-16T07:43:22;17.70;99.90
5055;DHT22;13829;48.990;8.346;2022-10-16T07:45:50;17.60;99.90
5055;DHT22;13829;48.990;8.346;2022-10-16T07:48:19;17.60;99.90
5055;DHT22;13829;48.990;8.346;2022-10-16T07:50:46;17.60;99.90
5055;DHT22;13829;48.990;8.346;2022-10-16T07:53:13;17.60;99.90
5055;DHT22;13829;48.990;8.346;2022-10-16T07:55:40;17.60;99.90
5055;DHT22;13829;48.990;8.346;2022-10-16T07:58:08;17.70;99.90
5055;DHT22;13829;48.990;8.346;2022-10-16T08:00:36;17.80;99.90
5055;DHT22;13829;48.990;8.346;2022-10-16T08:03:04;17.70;99.90
5055;DHT22;13829;48.990;8.346;2022-10-16T08:05:32;17.70;99.90
5055;DHT22;13829;48.990;8.346;2022-10-16T08:08:02;17.70;99.90
5055;DHT22;13829;48.990;8.346;2022-10-16T08:10:29;17.80;99.90
5055;DHT22;13829;48.990;8.346;2022-10-16T08:12:57;17.70;99.90
5055;DHT22;13829;48.990;8.346;2022-10-16T08:15:25;17.90;99.90
5055;DHT22;13829;48.990;8.346;2022-10-16T08:17:56;18.00;99.90
5055;DHT22;13829;48.990;8.346;2022-10-16T08:20:24;18.10;99.90
5055;DHT22;13829;48.990;8.346;2022-10-16T08:22:52;18.20;99.90
5055;DHT22;13829;48.990;8.346;2022-10-16T08:25:20;18.30;99.90
5055;DHT22;13829;48.990;8.346;2022-10-16T08:27:47;18.40;99.90
5055;DHT22;13829;48.990;8.346;2022-10-16T08:30:15;18.40;99.90
5055;DHT22;13829;48.990;8.346;2022-10-16T08:32:42;18.40;99.90
5055;DHT22;13829;48.990;8.346;2022-10-16T08:35:10;18.40;99.90
5055;DHT22;13829;48.990;8.346;2022-10-16T08:37:38;18.40;99.90
5055;DHT22;13829;48.990;8.346;2022-10-16T08:40:15;18.50;99.90
5055;DHT22;13829;48.990;8.346;2022-10-16T08:42:59;18.50;99.90
5055;DHT22;13829;48.990;8.346;2022-10-16T08:45:52;18.70;99.90
5055;DHT22;13829;48.990;8.346;2022-10-16T08:48:39;18.70;99.90
5055;DHT22;13829;48.990;8.346;2022-10-16T08:51:14;18.70;99.90
5055;DHT22;13829;48.990;8.346;2022-10-16T08:53:49;18.70;99.90
5055;DHT22;13829;48.990;8.346;2022-10-16T08:56:21;18.80;99.90
5055;DHT22;13829;48.990;8.346;2022-10-16T08:58:48;19.00;99.90
5055;DHT22;13829;48.990;8.346;2022-10-16T09:01:19;19.20;99.90
5055;DHT22;13829;48.990;8.346;2022-10-16T09:04:03;19.20;99.90
5055;DHT22;13829;48.990;8.346;2022-10-16T09:06:51;19.30;99.90
5055;DHT22;13829;48.990;8.346;2022-10-16T09:09:34;19.50;99.90
5055;DHT22;13829;48.990;8.346;2022-10-16T09:12:18;19.60;99.90
5055;DHT22;13829;48.990;8.346;2022-10-16T09:14:58;19.70;99.90
5055;DHT22;13829;48.990;8.346;2022-10-16T09:17:40;19.70;99.90
5055;DHT22;13829;48.990;8.346;2022-10-16T09:20:20;19.70;99.90
5055;DHT22;13829;48.990;8.346;2022-10-16T09:23:08;19.70;99.90
5055;DHT22;13829;48.990;8.346;2022-10-16T09:25:43;19.60;99.90
5055;DHT22;13829;48.990;8.346;2022-10-16T09:28:15;19.50;99.90
5055;DHT22;13829;48.990;8.346;2022-10-16T09:30:45;19.50;99.90
5055;DHT22;13829;48.990;8.346;2022-10-16T09:33:14;19.30;99.90
5055;DHT22;13829;48.990;8.346;2022-10-16T09:35:45;19.20;99.90
5055;DHT22;13829;48.990;8.346;2022-10-16T09:38:25;19.10;99.90
5055;DHT22;13829;48.990;8.346;2022-10-16T09:40:55;19.10;99.90
5055;DHT22;13829;48.990;8.346;2022-10-16T09:43:26;19.20;99.90
5055;DHT22;13829;48.990;8.346;2022-10-16T09:46:01;19.30;99.90
5055;DHT22;13829;48.990;8.346;2022-10-16T09:48:35;19.40;99.90
5055;DHT22;13829;48.990;8.346;2022-10-16T09:51:06;19.70;99.90
5055;DHT22;13829;48.990;8.346;2022-10-16T09:53:43;19.90;99.90
5055;DHT22;13829;48.990;8.346;2022-10-16T09:56:21;20.00;99.90
5055;DHT22;13829;48.990;8.346;2022-10-16T09:58:51;20.00;99.90
5055;DHT22;13829;48.990;8.346;2022-10-16T10:01:21;20.20;99.90
5055;DHT22;13829;48.990;8.346;2022-10-16T10:03:56;20.20;99.90
5055;DHT22;13829;48.990;8.346;2022-10-16T10:06:29;20.20;99.90
5055;DHT22;13829;48.990;8.346;2022-10-16T10:09:05;20.20;99.90
5055;DHT22;13829;48.990;8.346;2022-10-16T10:11:44;20.00;99.90
5055;DHT22;13829;48.990;8.346;2022-10-16T10:14:24;20.00;99.90
5055;DHT22;13829;48.990;8.346;2022-10-16T10:17:07;19.90;99.90
5055;DHT22;13829;48.990;8.346;2022-10-16T10:19:39;19.90;99.90
5055;DHT22;13829;48.990;8.346;2022-10-16T10:22:18;19.80;99.90
5055;DHT22;13829;48.990;8.346;2022-10-16T10:25:17;19.70;99.90
5055;DHT22;13829;48.990;8.346;2022-10-16T10:28:13;19.70;99.90
5055;DHT22;13829;48.990;8.346;2022-10-16T10:30:56;19.70;99.90
5055;DHT22;13829;48.990;8.346;2022-10-16T10:33:37;19.80;99.90
5055;DHT22;13829;48.990;8.346;2022-10-16T10:36:21;19.70;99.90
5055;DHT22;13829;48.990;8.346;2022-10-16T10:38:57;19.70;99.90
5055;DHT22;13829;48.990;8.346;2022-10-16T10:41:59;19.70;99.90
5055;DHT22;13829;48.990;8.346;2022-10-16T10:45:00;19.70;99.90
5055;DHT22;13829;48.990;8.346;2022-10-16T10:50:51;19.80;99.90
5055;DHT22;13829;48.990;8.346;2022-10-16T10:53:31;19.70;99.90
5055;DHT22;13829;48.990;8.346;2022-10-16T10:56:16;19.70;99.90
5055;DHT22;13829;48.990;8.346;2022-10-16T10:59:04;19.90;99.90
5055;DHT22;13829;48.990;8.346;2022-10-16T11:01:50;20.00;99.90
5055;DHT22;13829;48.990;8.346;2022-10-16T11:04:42;20.20;99.90
5055;DHT22;13829;48.990;8.346;2022-10-16T11:07:37;20.50;99.90
5055;DHT22;13829;48.990;8.346;2022-10-16T11:10:14;20.70;99.90
5055;DHT22;13829;48.990;8.346;2022-10-16T11:12:49;20.80;99.90
5055;DHT22;13829;48.990;8.346;2022-10-16T11:15:23;21.00;99.90
5055;DHT22;13829;48.990;8.346;2022-10-16T11:17:57;21.00;99.90
5055;DHT22;13829;48.990;8.346;2022-10-16T11:20:32;21.20;99.90
5055;DHT22;13829;48.990;8.346;2022-10-16T11:23:06;21.30;99.90
5055;DHT22;13829;48.990;8.346;2022-10-16T11:25:40;21.40;99.90
5055;DHT22;13829;48.990;8.346;2022-10-16T11:28:11;21.50;99.90
5055;DHT22;13829;48.990;8.346;2022-10-16T11:30:46;21.70;99.90
5055;DHT22;13829;48.990;8.346;2022-10-16T11:33:26;21.60;99.90
5055;DHT22;13829;48.990;8.346;2022-10-16T11:36:02;21.80;99.90
5055;DHT22;13829;48.990;8.346;2022-10-16T11:38:39;21.80;99.90
5055;DHT22;13829;48.990;8.346;2022-10-16T11:41:18;21.90;99.90
5055;DHT22;13829;48.990;8.346;2022-10-16T11:43:52;22.00;99.90
5055;DHT22;13829;48.990;8.346;2022-10-16T11:46:34;22.10;99.90
5055;DHT22;13829;48.990;8.346;2022-10-16T11:49:10;22.10;99.90
5055;DHT22;13829;48.990;8.346;2022-10-16T11:51:48;22.30;99.90
5055;DHT22;13829;48.990;8.346;2022-10-16T11:54:28;22.30;99.90
5055;DHT22;13829;48.990;8.346;2022-10-16T11:57:08;22.20;99.90
5055;DHT22;13829;48.990;8.346;2022-10-16T11:59:43;22.30;99.90
5055;DHT22;13829;48.990;8.346;2022-10-16T12:02:28;22.20;99.90
5055;DHT22;13829;48.990;8.346;2022-10-16T12:05:12;22.30;99.90
5055;DHT22;13829;48.990;8.346;2022-10-16T12:07:55;22.10;99.90
5055;DHT22;13829;48.990;8.346;2022-10-16T12:10:30;22.10;99.90
5055;DHT22;13829;48.990;8.346;2022-10-16T12:13:03;22.10;99.90
5055;DHT22;13829;48.990;8.346;2022-10-16T12:15:32;22.30;99.90
5055;DHT22;13829;48.990;8.346;2022-10-16T12:18:00;22.30;99.90
5055;DHT22;13829;48.990;8.346;2022-10-16T12:20:29;22.20;99.90
5055;DHT22;13829;48.990;8.346;2022-10-16T12:23:00;22.30;99.90
5055;DHT22;13829;48.990;8.346;2022-10-16T12:25:30;22.20;99.90
5055;DHT22;13829;48.990;8.346;2022-10-16T12:28:00;22.10;99.90
5055;DHT22;13829;48.990;8.346;2022-10-16T12:30:32;22.00;99.90
5055;DHT22;13829;48.990;8.346;2022-10-16T12:33:02;22.00;99.90
5055;DHT22;13829;48.990;8.346;2022-10-16T12:35:33;21.80;99.90
5055;DHT22;13829;48.990;8.346;2022-10-16T12:38:17;21.70;99.90
5055;DHT22;13829;48.990;8.346;2022-10-16T12:40:47;21.70;99.90
5055;DHT22;13829;48.990;8.346;2022-10-16T12:43:27;21.70;99.90
5055;DHT22;13829;48.990;8.346;2022-10-16T12:49:19;21.70;99.90
5055;DHT22;13829;48.990;8.346;2022-10-16T12:51:50;21.70;99.90
5055;DHT22;13829;48.990;8.346;2022-10-16T12:54:20;21.70;99.90
5055;DHT22;13829;48.990;8.346;2022-10-16T12:57:01;21.70;99.90
5055;DHT22;13829;48.990;8.346;2022-10-16T12:59:43;21.70;99.90
5055;DHT22;13829;48.990;8.346;2022-10-16T13:02:51;21.80;99.90
5055;DHT22;13829;48.990;8.346;2022-10-16T13:05:39;21.70;99.90
5055;DHT22;13829;48.990;8.346;2022-10-16T13:08:29;21.60;99.90
5055;DHT22;13829;48.990;8.346;2022-10-16T13:11:17;21.50;99.90
5055;DHT22;13829;48.990;8.346;2022-10-16T13:14:05;21.30;99.90
5055;DHT22;13829;48.990;8.346;2022-10-16T13:16:52;21.30;99.90
5055;DHT22;13829;48.990;8.346;2022-10-16T13:19:35;21.10;99.90
5055;DHT22;13829;48.990;8.346;2022-10-16T13:22:17;21.10;99.90
5055;DHT22;13829;48.990;8.346;2022-10-16T13:25:05;21.00;99.90
5055;DHT22;13829;48.990;8.346;2022-10-16T13:27:51;21.00;99.90
5055;DHT22;13829;48.990;8.346;2022-10-16T13:30:23;21.00;99.90
5055;DHT22;13829;48.990;8.346;2022-10-16T13:33:00;21.00;99.90
5055;DHT22;13829;48.990;8.346;2022-10-16T13:35:32;21.00;99.90
5055;DHT22;13829;48.990;8.346;2022-10-16T13:38:12;21.10;99.90
5055;DHT22;13829;48.990;8.346;2022-10-16T13:40:52;21.00;99.90
5055;DHT22;13829;48.990;8.346;2022-10-16T13:43:24;21.00;99.90
5055;DHT22;13829;48.990;8.346;2022-10-16T13:45:57;21.00;99.90
5055;DHT22;13829;48.990;8.346;2022-10-16T13:48:27;20.90;99.90
5055;DHT22;13829;48.990;8.346;2022-10-16T13:51:03;20.80;99.90
5055;DHT22;13829;48.990;8.346;2022-10-16T13:53:34;20.80;99.90
5055;DHT22;13829;48.990;8.346;2022-10-16T13:56:04;20.80;99.90
5055;DHT22;13829;48.990;8.346;2022-10-16T13:58:35;20.60;99.90
5055;DHT22;13829;48.990;8.346;2022-10-16T14:01:04;20.60;99.90
5055;DHT22;13829;48.990;8.346;2022-10-16T14:03:33;20.60;99.90
5055;DHT22;13829;48.990;8.346;2022-10-16T14:06:04;20.60;99.90
5055;DHT22;13829;48.990;8.346;2022-10-16T14:08:43;20.50;99.90
5055;DHT22;13829;48.990;8.346;2022-10-16T14:11:12;20.50;99.90
5055;DHT22;13829;48.990;8.346;2022-10-16T14:13:44;20.40;99.90
5055;DHT22;13829;48.990;8.346;2022-10-16T14:16:17;20.30;99.90
5055;DHT22;13829;48.990;8.346;2022-10-16T14:18:51;20.30;99.90
5055;DHT22;13829;48.990;8.346;2022-10-16T14:21:23;20.30;99.90
5055;DHT22;13829;48.990;8.346;2022-10-16T14:23:52;20.40;99.90
5055;DHT22;13829;48.990;8.346;2022-10-16T14:26:23;20.40;99.90
5055;DHT22;13829;48.990;8.346;2022-10-16T14:29:10;20.60;99.90
5055;DHT22;13829;48.990;8.346;2022-10-16T14:31:38;20.80;99.90
5055;DHT22;13829;48.990;8.346;2022-10-16T14:34:24;20.90;99.90
5055;DHT22;13829;48.990;8.346;2022-10-16T14:36:53;21.10;99.90
5055;DHT22;13829;48.990;8.346;2022-10-16T14:39:22;21.20;99.90
5055;DHT22;13829;48.990;8.346;2022-10-16T14:41:55;21.20;99.90
5055;DHT22;13829;48.990;8.346;2022-10-16T14:44:28;21.40;99.90
5055;DHT22;13829;48.990;8.346;2022-10-16T14:46:56;21.40;99.90
5055;DHT22;13829;48.990;8.346;2022-10-16T14:49:25;21.50;99.90
5055;DHT22;13829;48.990;8.346;2022-10-16T14:51:53;21.50;99.90
5055;DHT22;13829;48.990;8.346;2022-10-16T14:54:20;21.50;99.90
5055;DHT22;13829;48.990;8.346;2022-10-16T14:56:50;21.40;99.90
5055;DHT22;13829;48.990;8.346;2022-10-16T14:59:22;21.30;99.90
5055;DHT22;13829;48.990;8.346;2022-10-16T15:01:55;21.30;99.90
5055;DHT22;13829;48.990;8.346;2022-10-16T15:04:22;21.10;99.90
5055;DHT22;13829;48.990;8.346;2022-10-16T15:06:49;21.10;99.90
5055;DHT22;13829;48.990;8.346;2022-10-16T15:09:16;21.00;99.90
5055;DHT22;13829;48.990;8.346;2022-10-16T15:11:43;20.90;99.90
5055;DHT22;13829;48.990;8.346;2022-10-16T15:14:11;20.80;99.90
5055;DHT22;13829;48.990;8.346;2022-10-16T15:16:40;20.60;99.90
5055;DHT22;13829;48.990;8.346;2022-10-16T15:19:08;20.60;99.90
5055;DHT22;13829;48.990;8.346;2022-10-16T15:21:35;20.50;99.90
5055;DHT22;13829;48.990;8.346;2022-10-16T15:24:02;20.50;99.90
5055;DHT22;13829;48.990;8.346;2022-10-16T15:26:29;20.50;99.90
5055;DHT22;13829;48.990;8.346;2022-10-16T15:28:56;20.50;99.90
5055;DHT22;13829;48.990;8.346;2022-10-16T15:31:24;20.50;99.90
5055;DHT22;13829;48.990;8.346;2022-10-16T15:33:53;20.50;99.90
5055;DHT22;13829;48.990;8.346;2022-10-16T15:36:27;20.50;99.90
5055;DHT22;13829;48.990;8.346;2022-10-16T15:38:55;20.50;99.90
5055;DHT22;13829;48.990;8.346;2022-10-16T15:41:22;20.50;99.90
5055;DHT22;13829;48.990;8.346;2022-10-16T15:43:50;20.40;99.90
5055;DHT22;13829;48.990;8.346;2022-10-16T15:46:19;20.40;99.90
5055;DHT22;13829;48.990;8.346;2022-10-16T15:48:48;20.20;99.90
5055;DHT22;13829;48.990;8.346;2022-10-16T15:51:18;20.20;99.90
5055;DHT22;13829;48.990;8.346;2022-10-16T15:53:45;20.20;99.90
5055;DHT22;13829;48.990;8.346;2022-10-16T15:56:13;20.10;99.90
5055;DHT22;13829;48.990;8.346;2022-10-16T15:58:40;20.00;99.90
5055;DHT22;13829;48.990;8.346;2022-10-16T16:01:09;20.00;99.90
5055;DHT22;13829;48.990;8.346;2022-10-16T16:03:37;19.90;99.90
5055;DHT22;13829;48.990;8.346;2022-10-16T16:06:08;19.90;99.90
5055;DHT22;13829;48.990;8.346;2022-10-16T16:08:38;19.70;99.90
5055;DHT22;13829;48.990;8.346;2022-10-16T16:11:06;19.70;99.90
5055;DHT22;13829;48.990;8.346;2022-10-16T16:13:36;19.60;99.90
5055;DHT22;13829;48.990;8.346;2022-10-16T16:16:06;19.50;99.90
5055;DHT22;13829;48.990;8.346;2022-10-16T16:18:34;19.40;99.90
5055;DHT22;13829;48.990;8.346;2022-10-16T16:21:01;19.30;99.90
5055;DHT22;13829;48.990;8.346;2022-10-16T16:23:28;19.30;99.90